Time;durP1;ratioP1;P1;durP2;ratioP2;P2;SDS_P1;SDS_P2;PMS_P1;PMS_P2;Temp;Humidity;BMP_temperature;BMP_pressure;BME280_temperature;BME280_humidity;BME280_pressure;Samples;Min_cycle;Max_cycle;Signal;HPM_P1;HPM_P2
2022/10/02 00:00:12;;;;;;;91.53;7.38;;;;;;;24.17;52.73;99980.94;4898354;29;20043;-84
2022/10/02 00:02:38;;;;;;;44.85;4.82;;;;;;;24.23;54.08;99993.78;4895313;29;20868;-86
2022/10/02 00:05:11;;;;;;;14.88;5.63;;;;;;;24.13;54.56;99987.97;4898931;29;20106;-86
2022/10/02 00:07:51;;;;;;;40.80;5.28;;;;;;;23.82;55.25;99959.50;4917942;29;20194;-86
2022/10/02 00:10:37;;;;;;;24.75;5.82;;;;;;;23.96;55.74;100008.84;4959221;28;20049;-88
2022/10/02 00:13:16;;;;;;;22.30;4.82;;;;;;;23.76;57.03;99996.13;4965858;28;20031;-85
2022/10/02 00:15:43;;;;;;;16.58;5.00;;;;;;;23.70;57.50;100001.66;4983819;28;20030;-85
2022/10/02 00:18:12;;;;;;;27.00;4.95;;;;;;;23.66;58.15;99997.72;4991455;28;20045;-84
2022/10/02 00:21:08;;;;;;;13.30;4.60;;;;;;;23.56;58.35;99998.22;4978625;28;20031;-85
2022/10/02 00:23:42;;;;;;;32.08;5.50;;;;;;;23.47;59.09;99974.84;4959348;28;20569;-86
2022/10/02 00:26:17;;;;;;;23.45;5.65;;;;;;;23.48;59.76;99982.03;4948262;28;20027;-88
2022/10/02 00:28:52;;;;;;;18.45;4.30;;;;;;;23.40;60.05;99974.06;4960376;28;20131;-84
2022/10/02 00:31:50;;;;;;;14.25;4.63;;;;;;;23.19;60.50;99963.44;4962117;28;20507;-85
2022/10/02 00:34:34;;;;;;;17.20;4.45;;;;;;;23.21;61.05;99991.47;4944481;28;20035;-84
2022/10/02 00:37:34;;;;;;;18.42;3.80;;;;;;;23.16;61.41;99994.91;4935958;29;20028;-86
2022/10/02 00:40:17;;;;;;;28.15;5.95;;;;;;;23.11;61.87;99977.44;4946635;28;20118;-84
2022/10/02 00:42:45;;;;;;;16.42;4.30;;;;;;;23.09;62.27;99982.28;4957700;28;20031;-90
2022/10/02 00:45:33;;;;;;;6.55;3.75;;;;;;;22.78;62.47;99959.28;4956294;28;20114;-86
2022/10/02 00:48:16;;;;;;;7.68;3.83;;;;;;;22.92;63.06;99981.13;4927209;29;20023;-88
2022/10/02 00:51:03;;;;;;;14.30;4.00;;;;;;;22.89;63.00;100000.78;4952393;28;20035;-84
2022/10/02 00:54:02;;;;;;;8.65;3.50;;;;;;;22.84;63.52;100008.84;4949804;28;20051;-85
2022/10/02 00:57:07;;;;;;;7.88;3.55;;;;;;;22.78;63.56;100025.06;4964172;28;20039;-85
2022/10/02 01:00:04;;;;;;;13.00;3.00;;;;;;;22.73;63.69;100041.34;4942134;28;20043;-86
2022/10/02 01:02:42;;;;;;;14.40;3.13;;;;;;;22.72;63.50;100031.44;4943764;28;20038;-84
2022/10/02 01:05:08;;;;;;;27.25;3.78;;;;;;;22.70;64.04;100019.00;4940341;28;20059;-87
2022/10/02 01:07:42;;;;;;;77.43;6.60;;;;;;;22.57;63.69;100005.31;4948948;28;20035;-86
2022/10/02 01:10:11;;;;;;;24.15;3.58;;;;;;;22.69;63.37;100020.91;4953702;28;20085;-84
2022/10/02 01:12:36;;;;;;;14.23;2.60;;;;;;;22.50;63.63;99997.16;4952566;28;20614;-82
2022/10/02 01:15:17;;;;;;;37.22;3.15;;;;;;;22.43;63.88;100007.28;4941983;28;20028;-86
2022/10/02 01:17:44;;;;;;;18.35;2.88;;;;;;;22.54;64.61;100042.22;4919090;29;20519;-89
2022/10/02 01:20:16;;;;;;;8.38;1.98;;;;;;;22.31;64.87;100013.66;4935284;29;20088;-83
2022/10/02 01:23:18;;;;;;;7.95;1.92;;;;;;;22.38;65.67;100048.22;4948161;28;20029;-81
2022/10/02 01:25:44;;;;;;;9.68;3.72;;;;;;;22.37;65.88;100049.25;4945736;28;20027;-81
2022/10/02 01:28:10;;;;;;;4.55;2.05;;;;;;;22.20;65.69;100037.06;4948476;28;20689;-79
2022/10/02 01:30:39;;;;;;;5.43;2.25;;;;;;;22.39;65.69;100065.47;4933946;29;20028;-82
2022/10/02 01:33:05;;;;;;;4.63;1.90;;;;;;;22.23;65.99;100034.75;4935840;28;20039;-84
2022/10/02 01:35:34;;;;;;;6.13;2.47;;;;;;;22.35;66.21;100043.16;4941492;28;20039;-83
2022/10/02 01:38:05;;;;;;;7.85;3.05;;;;;;;22.32;65.95;100027.16;4948885;28;20067;-84
2022/10/02 01:40:32;;;;;;;16.15;2.58;;;;;;;22.40;65.93;100035.13;4960425;28;20039;-83
2022/10/02 01:43:02;;;;;;;8.82;2.45;;;;;;;22.48;66.33;100059.53;4933491;29;20059;-83
2022/10/02 01:45:50;;;;;;;13.77;2.60;;;;;;;22.45;66.20;100076.41;4945865;29;20120;-84
2022/10/02 01:48:26;;;;;;;12.60;2.58;;;;;;;22.30;67.06;100072.25;4956153;28;20031;-83
2022/10/02 01:51:00;;;;;;;5.78;2.08;;;;;;;22.26;67.33;100076.47;4935925;28;20027;-85
2022/10/02 01:54:04;;;;;;;7.53;2.38;;;;;;;22.26;67.75;100093.75;4947532;28;20039;-84
2022/10/02 01:57:17;;;;;;;10.18;1.95;;;;;;;22.07;68.34;100079.03;4890786;29;20048;-83
2022/10/02 02:00:00;;;;;;;8.63;2.40;;;;;;;22.10;68.76;100075.03;4865230;29;20068;-84
2022/10/02 02:02:32;;;;;;;7.50;1.63;;;;;;;22.03;68.78;100061.34;4859218;29;20049;-83
2022/10/02 02:05:22;;;;;;;7.50;1.80;;;;;;;22.07;68.78;100065.34;4840166;29;20153;-85
2022/10/02 02:08:06;;;;;;;8.25;1.38;;;;;;;21.93;69.07;100027.22;4837839;29;20056;-85
2022/10/02 02:11:05;;;;;;;9.35;1.63;;;;;;;22.02;69.42;100043.22;4838054;29;20530;-85
2022/10/02 02:13:42;;;;;;;10.75;2.10;;;;;;;21.86;69.43;100001.72;4837254;29;20038;-85
2022/10/02 02:16:30;;;;;;;10.38;1.90;;;;;;;21.85;69.54;99989.09;4836559;29;20061;-86
2022/10/02 02:19:10;;;;;;;10.10;2.15;;;;;;;22.04;69.59;100021.94;4840152;29;20075;-84
2022/10/02 02:21:42;;;;;;;4.47;1.80;;;;;;;22.10;69.40;100012.88;4836999;29;20137;-83
2022/10/02 02:24:18;;;;;;;7.93;1.77;;;;;;;21.93;69.47;99966.97;4836699;29;20042;-84
2022/10/02 02:26:45;;;;;;;23.55;2.45;;;;;;;21.96;69.36;99956.44;4837167;29;20141;-84
2022/10/02 02:29:13;;;;;;;37.53;5.28;;;;;;;22.12;69.47;99955.13;4821308;29;20264;-84
2022/10/02 02:31:46;;;;;;;19.30;3.33;;;;;;;22.16;69.45;99951.75;4837245;29;20065;-83
2022/10/02 02:34:19;;;;;;;8.68;2.42;;;;;;;21.98;69.17;99898.72;4865233;29;20115;-84
2022/10/02 02:36:51;;;;;;;56.80;4.60;;;;;;;22.19;69.13;99898.44;4932744;29;20051;-85
2022/10/02 02:39:26;;;;;;;15.73;2.17;;;;;;;22.21;69.22;99864.28;4932791;29;20547;-84
2022/10/02 02:41:58;;;;;;;48.92;3.53;;;;;;;22.17;69.23;99848.47;4942444;28;20039;-86
2022/10/02 02:44:31;;;;;;;10.35;2.33;;;;;;;22.22;68.93;99867.88;4944024;28;20031;-82
2022/10/02 02:47:10;;;;;;;10.70;3.42;;;;;;;22.04;69.93;99887.75;4927788;28;20384;-83
2022/10/02 02:49:44;;;;;;;13.52;2.22;;;;;;;22.09;69.79;99863.28;4941636;28;20055;-84
2022/10/02 02:52:16;;;;;;;10.43;1.83;;;;;;;22.16;69.20;99864.09;4935586;29;20043;-83
2022/10/02 02:54:48;;;;;;;7.07;3.10;;;;;;;21.97;68.90;99834.91;4938112;28;20067;-84
2022/10/02 02:57:17;;;;;;;10.00;2.07;;;;;;;22.20;68.69;99880.91;4935267;29;20059;-83
2022/10/02 02:59:47;;;;;;;4.95;1.67;;;;;;;22.27;68.52;99909.13;4959643;28;20057;-84
2022/10/02 03:02:12;;;;;;;9.50;2.15;;;;;;;22.17;68.41;99926.03;4968373;28;20031;-83
2022/10/02 03:04:38;;;;;;;6.80;3.03;;;;;;;22.09;69.17;99950.94;4966168;28;20031;-83
2022/10/02 03:07:04;;;;;;;8.32;2.55;;;;;;;22.10;69.63;99984.63;4951567;28;20030;-85
2022/10/02 03:09:32;;;;;;;8.93;1.80;;;;;;;21.84;70.49;99946.31;4934511;28;20506;-85
2022/10/02 03:12:27;;;;;;;12.07;2.45;;;;;;;21.79;71.05;99965.28;4933072;29;20024;-84
2022/10/02 03:15:33;;;;;;;7.85;2.47;;;;;;;21.85;71.78;99997.28;4964175;28;20061;-85
2022/10/02 03:18:14;;;;;;;12.45;2.60;;;;;;;21.77;72.04;100005.75;4880157;29;20449;-83
2022/10/02 03:20:41;;;;;;;10.52;2.92;;;;;;;21.66;72.81;99994.38;4872930;29;20132;-84
2022/10/02 03:23:12;;;;;;;129.07;10.23;;;;;;;21.66;72.99;99977.94;4872462;29;20529;-84
2022/10/02 03:25:49;;;;;;;14.52;3.67;;;;;;;21.74;72.79;99981.53;4874691;29;20116;-84
2022/10/02 03:28:26;;;;;;;13.13;3.53;;;;;;;21.61;73.08;99976.91;4872668;29;20092;-83
2022/10/02 03:30:54;;;;;;;7.00;2.65;;;;;;;21.66;73.09;99977.94;4865989;29;20069;-83
2022/10/02 03:33:21;;;;;;;11.20;2.70;;;;;;;21.64;73.44;100004.69;4860704;29;20050;-83
2022/10/02 03:35:49;;;;;;;13.10;3.20;;;;;;;21.62;73.37;99987.63;4860411;29;20493;-84
2022/10/02 03:38:16;;;;;;;8.57;3.33;;;;;;;21.60;73.33;99978.78;4877929;29;20049;-83
2022/10/02 03:40:41;;;;;;;131.05;8.25;;;;;;;21.56;73.21;99960.25;4861273;29;20033;-83
2022/10/02 03:43:16;;;;;;;55.58;5.63;;;;;;;21.73;73.31;99988.88;4860408;29;20057;-84
2022/10/02 03:45:41;;;;;;;9.90;3.55;;;;;;;21.69;73.32;99983.00;4865649;29;20127;-84
2022/10/02 03:48:06;;;;;;;43.17;4.40;;;;;;;21.64;73.37;99966.38;4881466;29;20048;-83
2022/10/02 03:50:32;;;;;;;53.85;5.22;;;;;;;21.76;73.23;99993.94;4891223;29;20109;-82
2022/10/02 03:52:57;;;;;;;21.45;3.53;;;;;;;21.59;73.65;99996.25;4861485;29;20553;-84
2022/10/02 03:55:23;;;;;;;21.50;3.67;;;;;;;21.67;73.80;100034.38;4916885;29;20040;-84
2022/10/02 03:57:50;;;;;;;13.40;3.55;;;;;;;21.66;73.80;100038.16;4934185;29;20074;-84
2022/10/02 04:00:21;;;;;;;18.45;5.05;;;;;;;21.58;73.99;100021.13;4936912;29;20522;-84
2022/10/02 04:02:57;;;;;;;8.93;3.55;;;;;;;21.49;74.11;100015.00;4919816;29;20118;-84
2022/10/02 04:05:32;;;;;;;14.70;4.18;;;;;;;21.62;74.22;100063.41;4920685;29;20119;-80
2022/10/02 04:08:39;;;;;;;25.17;4.50;;;;;;;21.57;74.60;100082.38;4937370;29;20063;-78
2022/10/02 04:11:13;;;;;;;13.50;4.82;;;;;;;21.30;74.90;100062.34;4878423;29;20055;-77
2022/10/02 04:14:02;;;;;;;13.05;4.88;;;;;;;21.50;75.07;100101.50;4875560;29;20038;-78
2022/10/02 04:16:36;;;;;;;24.40;5.38;;;;;;;21.47;75.28;100115.59;4823219;29;20628;-78
2022/10/02 04:19:23;;;;;;;10.98;4.90;;;;;;;21.49;75.36;100105.31;4821419;29;20117;-78
2022/10/02 04:22:16;;;;;;;22.38;7.38;;;;;;;21.53;75.51;100076.47;4828694;29;20057;-78
2022/10/02 04:24:45;;;;;;;23.90;5.57;;;;;;;21.48;75.75;100065.31;4828009;29;20806;-77
2022/10/02 04:27:33;;;;;;;13.63;4.80;;;;;;;21.48;75.81;100059.00;4826833;29;20054;-76
2022/10/02 04:30:04;;;;;;;11.60;3.95;;;;;;;21.44;75.97;100047.63;4823111;29;20529;-76
2022/10/02 04:32:33;;;;;;;14.52;4.47;;;;;;;21.41;76.29;100056.25;4807600;29;20078;-77
2022/10/02 04:34:59;;;;;;;19.00;4.43;;;;;;;21.32;76.46;100062.13;4822540;29;20591;-77
2022/10/02 04:38:01;;;;;;;13.43;3.67;;;;;;;21.31;76.88;100046.78;4823972;29;20042;-83
2022/10/02 04:40:50;;;;;;;7.95;3.05;;;;;;;21.27;77.27;100059.16;4827968;29;20066;-82
2022/10/02 04:43:31;;;;;;;7.25;3.58;;;;;;;21.23;77.53;100058.75;4836546;29;20121;-83
2022/10/02 04:45:57;;;;;;;17.38;3.03;;;;;;;21.23;77.64;100072.41;4842774;29;20477;-82
2022/10/02 04:48:41;;;;;;;130.88;10.13;;;;;;;21.23;77.72;100069.69;4867293;29;20502;-82
2022/10/02 04:51:13;;;;;;;14.93;2.78;;;;;;;21.19;78.08;100078.53;4867726;29;20512;-81
2022/10/02 04:54:20;;;;;;;15.15;3.50;;;;;;;21.27;77.92;100076.44;4880312;29;20075;-82
2022/10/02 04:57:17;;;;;;;18.00;3.50;;;;;;;21.34;77.41;100074.56;4916777;29;20028;-83
2022/10/02 04:59:50;;;;;;;16.92;3.20;;;;;;;21.13;77.76;100058.28;4915508;29;20440;-80
2022/10/02 05:02:40;;;;;;;12.18;3.05;;;;;;;21.24;78.04;100098.72;4917273;29;20036;-81
2022/10/02 05:05:29;;;;;;;28.77;3.60;;;;;;;21.31;77.88;100099.59;4925642;29;20119;-83
2022/10/02 05:08:02;;;;;;;34.90;4.10;;;;;;;21.37;77.53;100095.19;4924583;29;20083;-83
2022/10/02 05:10:52;;;;;;;26.17;3.75;;;;;;;21.45;77.51;100106.78;4920018;29;20472;-82
2022/10/02 05:13:29;;;;;;;8.60;2.75;;;;;;;21.54;76.98;100116.47;4915194;29;20035;-77
2022/10/02 05:16:33;;;;;;;16.98;2.95;;;;;;;21.62;76.65;100102.56;4928906;29;20039;-76
2022/10/02 05:19:23;;;;;;;13.05;2.53;;;;;;;21.68;76.57;100096.25;4875086;29;20041;-78
2022/10/02 05:22:11;;;;;;;12.85;3.00;;;;;;;21.78;76.39;100089.53;4859814;29;20046;-79
2022/10/02 05:24:57;;;;;;;11.68;3.40;;;;;;;21.62;76.15;100047.84;4873898;29;20876;-77
2022/10/02 05:27:32;;;;;;;7.38;2.60;;;;;;;21.84;75.73;100086.78;4874278;29;20053;-78
2022/10/02 05:30:00;;;;;;;13.68;3.63;;;;;;;21.74;75.42;100067.22;4858869;29;20064;-77
2022/10/02 05:32:44;;;;;;;11.00;3.03;;;;;;;21.93;75.63;100084.72;4874073;29;20100;-76
2022/10/02 05:35:22;;;;;;;19.60;4.65;;;;;;;21.97;75.24;100084.09;4874797;29;20532;-77
2022/10/02 05:38:13;;;;;;;14.27;5.03;;;;;;;22.04;75.32;100081.34;4865601;29;20045;-77
2022/10/02 05:40:38;;;;;;;7.32;3.00;;;;;;;22.02;74.95;100077.97;4823936;29;20095;-79
2022/10/02 05:43:55;;;;;;;12.35;3.97;;;;;;;22.01;74.94;100066.19;4843104;29;20054;-77
2022/10/02 05:46:27;;;;;;;7.20;3.05;;;;;;;21.92;74.83;100058.41;4772285;30;20040;-77
2022/10/02 05:49:07;;;;;;;19.15;3.80;;;;;;;21.90;74.96;100063.22;4768774;30;20055;-77
2022/10/02 05:51:58;;;;;;;24.08;4.00;;;;;;;21.87;74.92;100060.88;4764617;30;20562;-77
2022/10/02 05:54:33;;;;;;;15.25;3.60;;;;;;;21.81;74.07;100057.09;4780348;29;20096;-76
2022/10/02 05:57:12;;;;;;;7.07;2.90;;;;;;;21.69;74.02;100059.63;4800590;29;20498;-77
2022/10/02 06:00:02;;;;;;;10.65;3.05;;;;;;;21.66;73.82;100049.09;4800026;29;20065;-76
2022/10/02 06:02:30;;;;;;;18.98;2.85;;;;;;;21.66;73.39;100060.06;4785424;29;20486;-80
2022/10/02 06:05:12;;;;;;;8.73;2.45;;;;;;;21.58;73.29;100071.22;4800209;29;20138;-79
2022/10/02 06:07:43;;;;;;;11.48;2.30;;;;;;;21.51;73.22;100058.56;4800934;29;20034;-79
2022/10/02 06:10:18;;;;;;;21.02;3.28;;;;;;;21.47;72.57;100039.00;4801045;29;20047;-82
2022/10/02 06:12:52;;;;;;;15.55;2.65;;;;;;;21.51;72.22;100051.22;4807163;29;20107;-81
2022/10/02 06:15:48;;;;;;;12.55;2.63;;;;;;;21.47;71.25;100038.16;4814748;29;20046;-86
2022/10/02 06:18:19;;;;;;;66.10;4.40;;;;;;;21.44;70.85;100050.34;4827202;29;20046;-81
2022/10/02 06:20:55;;;;;;;7.43;2.40;;;;;;;21.30;70.76;100026.78;4840712;29;20516;-86
2022/10/02 06:23:52;;;;;;;7.13;2.13;;;;;;;21.38;70.94;100036.66;4893010;29;20067;-80
2022/10/02 06:26:35;;;;;;;6.72;2.30;;;;;;;21.25;71.34;100048.47;4900756;29;21248;-86
2022/10/02 06:29:17;;;;;;;11.05;2.92;;;;;;;21.19;71.29;100024.66;4894810;29;20041;-85
2022/10/02 06:31:53;;;;;;;5.97;2.40;;;;;;;21.33;70.25;100029.09;4908005;29;20036;-85
2022/10/02 06:34:19;;;;;;;13.63;4.55;;;;;;;21.36;70.53;100036.03;4908142;29;20039;-83
2022/10/02 06:37:00;;;;;;;12.75;4.75;;;;;;;21.43;69.87;100031.44;4909276;29;20156;-87
2022/10/02 06:39:39;;;;;;;11.48;2.25;;;;;;;21.38;69.87;100012.88;4912933;29;20195;-85
2022/10/02 06:42:23;;;;;;;21.70;4.38;;;;;;;21.28;68.79;99990.59;4925472;29;21831;-86
2022/10/02 06:44:57;;;;;;;19.40;2.10;;;;;;;21.53;68.66;100043.63;4930433;29;20035;-85
2022/10/02 06:47:56;;;;;;;10.25;2.90;;;;;;;21.50;68.40;100037.72;4927064;29;20048;-83
2022/10/02 06:50:50;;;;;;;7.90;2.00;;;;;;;21.45;68.85;100041.09;4903599;29;20064;-86
2022/10/02 06:53:32;;;;;;;14.68;3.00;;;;;;;21.43;68.96;100048.69;4913235;29;20119;-78
2022/10/02 06:56:24;;;;;;;3.95;2.13;;;;;;;21.30;69.41;100042.34;4905957;29;20497;-80
2022/10/02 06:59:11;;;;;;;9.77;2.87;;;;;;;21.12;69.67;100043.81;4910480;29;20036;-78
2022/10/02 07:02:16;;;;;;;6.50;2.40;;;;;;;21.11;69.63;100038.53;4904440;29;20055;-80
2022/10/02 07:05:03;;;;;;;9.90;2.47;;;;;;;21.05;69.85;100034.69;4920659;29;20036;-79
2022/10/02 07:07:48;;;;;;;7.40;3.08;;;;;;;21.01;70.17;100027.94;4950865;28;20031;-80
2022/10/02 07:11:02;;;;;;;18.38;2.90;;;;;;;20.96;69.74;100022.25;4949881;28;20114;-83
2022/10/02 07:13:46;;;;;;;7.20;2.55;;;;;;;21.04;69.68;100035.72;4917566;29;20550;-80
2022/10/02 07:16:51;;;;;;;2.75;2.33;;;;;;;21.12;69.03;100034.75;4927052;29;20127;-82
2022/10/02 07:19:23;;;;;;;40.88;4.30;;;;;;;21.08;69.05;100027.97;4912330;29;20510;-83
2022/10/02 07:21:54;;;;;;;5.53;2.65;;;;;;;20.71;68.74;99969.19;4912183;29;20028;-89
2022/10/02 07:24:43;;;;;;;7.65;3.03;;;;;;;21.04;68.42;100035.72;4894982;29;20037;-89
2022/10/02 07:27:22;;;;;;;60.15;5.53;;;;;;;21.11;68.54;100038.53;4895290;29;20057;-87
2022/10/02 07:30:14;;;;;;;21.48;6.13;;;;;;;21.16;68.07;100047.78;4892587;29;20048;-82
2022/10/02 07:33:02;;;;;;;48.75;10.38;;;;;;;21.08;67.29;100008.81;4836443;29;20062;-83
2022/10/02 07:35:46;;;;;;;52.33;13.30;;;;;;;21.27;66.02;100038.13;4836261;29;20042;-81
2022/10/02 07:38:23;;;;;;;34.67;11.77;;;;;;;21.40;66.03;100042.78;4835880;29;21104;-84
2022/10/02 07:41:26;;;;;;;38.78;11.05;;;;;;;21.51;64.78;100034.78;4837320;29;20425;-79
2022/10/02 07:44:07;;;;;;;67.20;15.70;;;;;;;21.59;64.39;100037.31;4836497;29;20115;-86
2022/10/02 07:46:53;;;;;;;37.17;17.75;;;;;;;21.68;63.63;100038.78;4842333;29;20153;-89
2022/10/02 07:49:27;;;;;;;70.68;14.80;;;;;;;21.83;62.91;100048.69;4860914;29;20109;-83
2022/10/02 07:52:16;;;;;;;92.38;13.88;;;;;;;21.77;62.66;100049.53;4876091;29;20136;-85
2022/10/02 07:54:54;;;;;;;27.90;10.18;;;;;;;21.82;62.46;100050.59;4874509;29;20040;-85
2022/10/02 07:57:26;;;;;;;21.50;8.00;;;;;;;21.85;62.42;100052.06;4873028;29;20048;-79
2022/10/02 07:59:56;;;;;;;;;;;;;;;21.86;61.66;100053.75;4873694;29;20055;-79
2022/10/02 08:02:36;;;;;;;21.05;8.43;;;;;;;21.79;62.24;100041.94;4873377;29;19915;-79
2022/10/02 08:05:06;;;;;;;14.77;8.30;;;;;;;21.84;61.68;100050.34;4875864;29;20128;-84
2022/10/02 08:07:31;;;;;;;72.57;9.82;;;;;;;21.60;62.15;100006.16;4874832;29;20029;-83
2022/10/02 08:10:04;;;;;;;15.65;4.93;;;;;;;21.85;61.80;100049.31;4916984;29;20110;-79
2022/10/02 08:12:55;;;;;;;17.50;4.40;;;;;;;21.84;61.73;100040.25;4917154;29;20046;-81
2022/10/02 08:15:22;;;;;;;14.82;5.47;;;;;;;21.79;61.82;100036.47;4950594;28;20034;-77
2022/10/02 08:17:56;;;;;;;20.58;6.05;;;;;;;21.93;61.89;100071.03;4953751;28;20102;-80
2022/10/02 08:20:42;;;;;;;34.22;6.82;;;;;;;21.96;60.90;100055.00;4955498;28;20046;-84
2022/10/02 08:23:28;;;;;;;51.72;7.60;;;;;;;22.04;61.22;100049.34;4946858;29;20027;-80
2022/10/02 08:26:05;;;;;;;124.13;12.43;;;;;;;22.12;60.82;100053.72;4939506;29;20577;-80
2022/10/02 08:28:35;;;;;;;26.70;5.88;;;;;;;22.16;60.52;100044.03;4967724;28;20066;-82
2022/10/02 08:31:01;;;;;;;52.88;11.15;;;;;;;22.33;60.42;100056.22;4971506;28;20086;-85
2022/10/02 08:33:30;;;;;;;42.00;7.97;;;;;;;22.44;60.08;100027.31;4962091;28;20063;-84
2022/10/02 08:36:17;;;;;;;22.13;6.70;;;;;;;22.58;59.20;100037.16;4955999;28;20487;-86
2022/10/02 08:39:01;;;;;;;13.75;4.43;;;;;;;22.87;58.51;100052.28;4956725;28;20031;-82
2022/10/02 08:41:32;;;;;;;21.13;4.13;;;;;;;22.78;57.35;100041.53;4954315;28;20058;-86
2022/10/02 08:44:13;;;;;;;21.52;3.55;;;;;;;22.95;57.08;100073.94;4927631;28;20020;-85
2022/10/02 08:47:08;;;;;;;16.85;3.35;;;;;;;22.97;57.13;100067.19;4955075;28;20259;-89
2022/10/02 08:50:02;;;;;;;121.28;9.57;;;;;;;23.18;56.97;100069.59;4894721;29;20043;-81
2022/10/02 08:52:59;;;;;;;58.97;7.70;;;;;;;23.39;56.83;100079.44;4895294;29;20039;-83
2022/10/02 08:55:42;;;;;;;36.30;3.92;;;;;;;23.53;52.96;100075.53;4878836;29;20047;-83
2022/10/02 08:58:35;;;;;;;31.40;3.45;;;;;;;23.55;51.03;100073.41;4894545;29;20084;-85
2022/10/02 09:01:39;;;;;;;44.30;5.25;;;;;;;23.43;51.44;100091.63;4893367;29;20096;-82
2022/10/02 09:04:25;;;;;;;22.70;2.47;;;;;;;23.40;51.52;100091.22;4894235;29;20522;-81
2022/10/02 09:07:18;;;;;;;21.17;3.10;;;;;;;23.34;51.64;100092.94;4877086;29;20368;-86
2022/10/02 09:09:52;;;;;;;9.10;2.22;;;;;;;23.15;51.91;100093.88;4886272;29;20035;-91
2022/10/02 09:12:30;;;;;;;39.53;4.43;;;;;;;22.94;52.46;100097.78;4896544;29;20068;-85
2022/10/02 09:15:10;;;;;;;15.68;2.88;;;;;;;22.83;52.92;100094.88;4889079;29;20115;-84
2022/10/02 09:17:48;;;;;;;25.77;3.10;;;;;;;22.56;53.09;100081.25;4874833;29;20494;-82
2022/10/02 09:20:40;;;;;;;20.00;3.60;;;;;;;22.62;53.47;100099.56;4899089;29;20049;-84
2022/10/02 09:23:27;;;;;;;10.25;2.10;;;;;;;22.61;53.65;100108.00;4893576;29;20480;-86
2022/10/02 09:26:06;;;;;;;5.75;1.95;;;;;;;22.43;53.94;100067.59;4906787;28;20051;-82
2022/10/02 09:29:28;;;;;;;5.03;2.63;;;;;;;22.67;53.78;100080.59;4942032;28;20063;-84
2022/10/02 09:32:17;;;;;;;24.88;3.33;;;;;;;22.91;53.96;100100.13;4893775;29;20576;-79
2022/10/02 09:34:52;;;;;;;18.92;2.47;;;;;;;23.10;53.46;100107.41;4893153;29;20044;-80
2022/10/02 09:38:02;;;;;;;19.55;3.53;;;;;;;23.38;52.47;100104.31;4892937;29;20083;-80
2022/10/02 09:40:40;;;;;;;21.23;2.55;;;;;;;23.59;51.57;100113.06;4893176;29;20037;-79
2022/10/02 09:43:30;;;;;;;21.63;2.35;;;;;;;23.91;50.72;100105.66;4892754;29;20937;-79
2022/10/02 09:46:07;;;;;;;32.28;2.92;;;;;;;24.25;49.01;100113.41;4892303;29;20036;-81
2022/10/02 09:48:50;;;;;;;11.65;2.08;;;;;;;24.36;47.75;100131.91;4905209;29;20062;-79
2022/10/02 09:51:51;;;;;;;16.33;2.78;;;;;;;24.46;47.60;100109.41;4909626;29;20036;-79
2022/10/02 09:54:46;;;;;;;17.27;2.60;;;;;;;24.48;47.35;100107.25;4852723;29;20049;-82
2022/10/02 09:57:48;;;;;;;15.00;2.03;;;;;;;24.72;46.51;100114.59;4837992;29;20103;-82
2022/10/02 10:00:31;;;;;;;17.63;2.80;;;;;;;24.71;45.87;100101.91;4837902;29;20046;-80
2022/10/02 10:03:15;;;;;;;22.25;2.65;;;;;;;24.61;45.31;100112.63;4837240;29;20399;-79
2022/10/02 10:06:02;;;;;;;6.55;1.75;;;;;;;24.58;44.66;100118.59;4847311;29;20085;-81
2022/10/02 10:08:39;;;;;;;11.85;2.75;;;;;;;24.54;44.92;100119.25;4855719;29;20626;-81
2022/10/02 10:11:28;;;;;;;23.88;2.15;;;;;;;24.30;43.84;100120.97;4855800;29;20063;-80
2022/10/02 10:14:37;;;;;;;4.22;1.98;;;;;;;24.17;44.73;100110.09;4855254;29;21133;-80
2022/10/02 10:17:12;;;;;;;44.15;12.63;;;;;;;24.00;45.55;100108.97;4800144;29;20038;-81
2022/10/02 10:20:05;;;;;;;31.65;15.93;;;;;;;23.99;46.07;100102.63;4800042;29;20054;-80
2022/10/02 10:22:56;;;;;;;59.42;25.30;;;;;;;24.10;45.46;100110.13;4799661;29;20941;-81
2022/10/02 10:25:37;;;;;;;109.85;44.08;;;;;;;24.22;44.62;100124.84;4799877;29;20035;-80
2022/10/02 10:28:05;;;;;;;66.50;40.78;;;;;;;24.52;44.26;100130.50;4821171;29;20057;-82
2022/10/02 10:31:12;;;;;;;71.68;35.47;;;;;;;24.79;44.60;100131.88;4854423;29;20041;-81
2022/10/02 10:34:03;;;;;;;42.58;26.77;;;;;;;25.10;43.45;100138.31;4799549;29;20079;-82
2022/10/02 10:39:45;;;;;;;31.65;13.75;;;;;;;25.54;42.63;100107.66;4799342;29;20107;-80
2022/10/02 10:42:10;;;;;;;10.98;7.72;;;;;;;25.97;42.00;100155.09;4746157;30;20084;-80
2022/10/02 10:44:47;;;;;;;19.08;6.55;;;;;;;26.18;41.06;100134.41;4746054;30;20636;-80
2022/10/02 10:47:34;;;;;;;48.75;6.82;;;;;;;26.37;40.82;100137.91;4760982;29;20137;-81
2022/10/02 10:50:24;;;;;;;11.85;6.97;;;;;;;26.52;39.46;100133.59;4799617;29;20119;-81
2022/10/02 10:53:17;;;;;;;15.18;7.95;;;;;;;26.61;39.50;100147.84;4799633;29;20047;-80
2022/10/02 10:56:21;;;;;;;46.60;6.38;;;;;;;26.39;38.72;100155.06;4799961;29;20539;-80
2022/10/02 10:58:51;;;;;;;10.05;1.88;;;;;;;25.96;39.67;100172.69;4763239;30;20054;-81
2022/10/02 11:01:36;;;;;;;11.20;2.28;;;;;;;25.62;40.77;100181.69;4763783;30;20517;-80
2022/10/02 11:04:19;;;;;;;17.98;3.95;;;;;;;25.51;41.26;100162.34;4763806;30;20070;-79
2022/10/02 11:07:17;;;;;;;26.63;12.13;;;;;;;25.40;41.06;100174.97;4763694;30;20070;-79
2022/10/02 11:09:52;;;;;;;23.17;9.07;;;;;;;25.33;41.08;100176.97;4786562;29;20125;-80
2022/10/02 11:12:55;;;;;;;19.27;10.35;;;;;;;25.43;41.93;100177.28;4829832;29;20046;-79
2022/10/02 11:15:29;;;;;;;25.60;5.82;;;;;;;25.61;41.64;100174.50;4829076;29;20355;-79
2022/10/02 11:18:38;;;;;;;9.88;2.33;;;;;;;25.67;40.99;100176.31;4820246;29;20047;-81
2022/10/02 11:21:16;;;;;;;9.10;2.08;;;;;;;25.58;40.97;100161.19;4799559;29;20046;-80
2022/10/02 11:24:26;;;;;;;12.02;1.55;;;;;;;25.46;40.48;100171.28;4815325;29;20049;-80
2022/10/02 11:27:18;;;;;;;23.67;3.05;;;;;;;25.16;40.85;100160.25;4819958;29;20058;-80
2022/10/02 11:30:03;;;;;;;20.25;3.25;;;;;;;25.28;41.21;100171.31;4834066;29;20038;-80
2022/10/02 11:32:59;;;;;;;13.23;4.38;;;;;;;25.39;40.91;100151.25;4818593;29;20444;-79
2022/10/02 11:35:43;;;;;;;36.83;24.15;;;;;;;25.38;40.99;100130.31;4840156;29;20049;-80
2022/10/02 11:38:37;;;;;;;24.15;11.82;;;;;;;25.70;40.71;100164.84;4872453;29;20056;-82
2022/10/02 11:41:08;;;;;;;20.75;9.23;;;;;;;25.95;40.36;100165.50;4872296;29;20116;-80
2022/10/02 11:44:04;;;;;;;43.53;8.02;;;;;;;26.13;39.69;100152.72;4872284;29;20048;-80
2022/10/02 11:46:47;;;;;;;22.10;2.88;;;;;;;26.19;40.07;100151.78;4872225;29;20041;-80
2022/10/02 11:49:40;;;;;;;10.68;2.65;;;;;;;26.37;39.63;100162.72;4872260;29;20056;-79
2022/10/02 11:52:20;;;;;;;16.80;2.50;;;;;;;26.42;39.29;100160.09;4875461;29;20068;-81
2022/10/02 11:54:48;;;;;;;19.38;3.72;;;;;;;26.57;39.13;100152.19;4876488;29;20583;-80
2022/10/02 11:57:16;;;;;;;12.13;2.88;;;;;;;26.67;38.57;100166.19;4881686;29;20068;-81
2022/10/02 12:00:03;;;;;;;16.48;3.15;;;;;;;26.69;38.42;100155.78;4935200;29;20035;-80
2022/10/02 12:02:42;;;;;;;5.35;2.17;;;;;;;26.30;38.40;100139.94;4935440;29;20645;-80
2022/10/02 12:05:32;;;;;;;16.65;1.92;;;;;;;26.04;39.12;100159.66;4935300;29;20039;-80
2022/10/02 12:08:17;;;;;;;11.70;1.40;;;;;;;26.03;39.45;100185.53;4935758;29;20035;-81
2022/10/02 12:11:10;;;;;;;22.77;2.67;;;;;;;25.88;40.22;100202.50;4935227;29;20035;-81
2022/10/02 12:14:02;;;;;;;25.20;2.50;;;;;;;25.81;39.70;100201.75;4934802;29;20028;-80
2022/10/02 12:16:36;;;;;;;14.03;1.77;;;;;;;25.70;39.97;100206.16;4935163;29;20039;-79
2022/10/02 12:19:23;;;;;;;14.77;2.30;;;;;;;25.60;40.41;100205.88;4934599;29;20699;-79
2022/10/02 12:28:02;;;;;;;13.10;2.20;;;;;;;25.59;40.41;100209.72;4942955;28;20563;-80
2022/10/02 12:30:38;;;;;;;15.55;2.33;;;;;;;25.56;39.80;100196.41;4960288;28;20474;-86
2022/10/02 12:33:29;;;;;;;19.75;2.15;;;;;;;25.71;40.21;100212.50;5036138;23;20084;-81